createdAt,value
2018-01-18T00:00:09.045Z,0
2018-01-18T00:00:49.682Z,0
2018-01-18T00:01:30.254Z,0
2018-01-18T00:02:10.830Z,0
2018-01-18T00:02:51.387Z,0
2018-01-18T00:03:31.948Z,0
2018-01-18T00:04:12.506Z,0
2018-01-18T00:04:53.130Z,0
2018-01-18T00:05:33.705Z,0
2018-01-18T00:06:14.289Z,0
2018-01-18T00:06:54.843Z,0
2018-01-18T00:07:35.418Z,0
2018-01-18T00:08:15.994Z,0
2018-01-18T00:08:56.580Z,0
2018-01-18T00:09:37.151Z,0
2018-01-18T00:10:17.713Z,0
2018-01-18T00:10:58.268Z,0
2018-01-18T00:11:38.823Z,0
2018-01-18T00:12:19.402Z,0
2018-01-18T00:12:59.985Z,0
2018-01-18T00:13:40.550Z,0
2018-01-18T00:14:21.168Z,0
2018-01-18T00:15:01.771Z,0
2018-01-18T00:15:42.350Z,0
2018-01-18T00:16:22.929Z,0
2018-01-18T00:17:03.509Z,0
2018-01-18T00:17:44.052Z,0
2018-01-18T00:18:24.621Z,0
2018-01-18T00:19:05.213Z,0
2018-01-18T00:19:45.801Z,0
2018-01-18T00:20:26.318Z,0
2018-01-18T00:21:06.877Z,0
2018-01-18T00:21:47.454Z,0
2018-01-18T00:22:28.055Z,0
2018-01-18T00:23:08.581Z,0
2018-01-18T00:23:49.138Z,0
2018-01-18T00:24:29.696Z,0
2018-01-18T00:25:10.309Z,0
2018-01-18T00:25:50.882Z,0
2018-01-18T00:26:31.498Z,0
2018-01-18T00:27:12.077Z,0
2018-01-18T00:27:52.635Z,0
2018-01-18T00:28:33.303Z,0
2018-01-18T00:29:13.899Z,0
2018-01-18T00:29:54.460Z,0
2018-01-18T00:30:35.048Z,0
2018-01-18T00:31:15.650Z,0
2018-01-18T00:31:56.251Z,0
2018-01-18T00:32:36.796Z,0
2018-01-18T00:33:17.360Z,0
2018-01-18T00:33:57.935Z,0
2018-01-18T00:34:38.501Z,0
2018-01-18T00:35:19.094Z,0
2018-01-18T00:35:59.647Z,0
2018-01-18T00:36:40.221Z,0
2018-01-18T00:37:20.789Z,0
2018-01-18T00:38:01.438Z,0
2018-01-18T00:38:42.015Z,0
2018-01-18T00:39:22.702Z,0
2018-01-18T00:40:03.278Z,0
2018-01-18T00:40:43.862Z,0
2018-01-18T00:41:24.447Z,0
2018-01-18T00:42:05.001Z,0
2018-01-18T00:42:45.584Z,0
2018-01-18T00:43:26.203Z,0
2018-01-18T00:44:06.789Z,0
2018-01-18T00:44:47.372Z,0
2018-01-18T00:45:28.007Z,0
2018-01-18T00:46:08.561Z,0
2018-01-18T00:46:49.125Z,0
2018-01-18T00:47:29.700Z,0
2018-01-18T00:48:10.271Z,0
2018-01-18T00:48:50.857Z,0
2018-01-18T00:49:31.418Z,0
2018-01-18T00:50:11.994Z,0
2018-01-18T00:50:52.549Z,0
2018-01-18T00:51:33.142Z,0
2018-01-18T00:52:13.692Z,0
2018-01-18T00:52:54.263Z,0
2018-01-18T00:53:34.815Z,0
2018-01-18T00:54:15.389Z,0
2018-01-18T00:54:55.957Z,0
2018-01-18T00:55:36.516Z,0
2018-01-18T00:56:17.079Z,0
2018-01-18T00:56:57.696Z,0
2018-01-18T00:57:38.244Z,0
2018-01-18T00:58:18.813Z,0
2018-01-18T00:58:59.397Z,0
2018-01-18T00:59:39.972Z,0
2018-01-18T01:00:20.530Z,0
2018-01-18T01:01:01.108Z,0
2018-01-18T01:01:41.656Z,0
2018-01-18T01:02:22.230Z,0
2018-01-18T01:03:02.795Z,0
2018-01-18T01:03:43.378Z,0
2018-01-18T01:04:23.935Z,0
2018-01-18T01:05:04.511Z,0
2018-01-18T01:05:45.151Z,0
2018-01-18T01:06:25.711Z,0
2018-01-18T01:07:06.276Z,0
2018-01-18T01:07:46.833Z,0
2018-01-18T01:08:27.444Z,0
2018-01-18T01:09:07.992Z,0
2018-01-18T01:09:48.545Z,0
2018-01-18T01:10:29.118Z,0
2018-01-18T01:11:09.699Z,0
2018-01-18T01:11:50.254Z,0
2018-01-18T01:12:30.836Z,0
2018-01-18T01:13:11.411Z,0
2018-01-18T01:13:51.971Z,0
2018-01-18T01:14:33.242Z,0
2018-01-18T01:15:13.851Z,0
2018-01-18T01:15:54.414Z,0
2018-01-18T01:16:34.993Z,0
2018-01-18T01:17:15.539Z,0
2018-01-18T01:17:56.097Z,0
2018-01-18T01:18:36.699Z,0
2018-01-18T01:19:17.289Z,0
2018-01-18T01:19:57.850Z,0
2018-01-18T01:20:38.402Z,0
2018-01-18T01:21:18.978Z,0
2018-01-18T01:21:59.534Z,0
2018-01-18T01:22:40.129Z,0
2018-01-18T01:23:20.693Z,0
2018-01-18T01:24:01.280Z,0
2018-01-18T01:24:41.859Z,0
2018-01-18T01:25:22.421Z,0
2018-01-18T01:26:02.979Z,0
2018-01-18T01:26:43.549Z,0
2018-01-18T01:27:24.133Z,0
2018-01-18T01:28:04.696Z,0
2018-01-18T01:28:45.252Z,0
2018-01-18T01:29:25.803Z,0
2018-01-18T01:30:06.414Z,0
2018-01-18T01:30:46.979Z,0
2018-01-18T01:31:27.546Z,0
2018-01-18T01:32:08.126Z,0
2018-01-18T01:32:48.680Z,0
2018-01-18T01:33:29.261Z,0
2018-01-18T01:34:09.823Z,0
2018-01-18T01:34:50.416Z,0
2018-01-18T01:35:30.967Z,0
2018-01-18T01:36:11.540Z,0
2018-01-18T01:36:52.104Z,0
2018-01-18T01:37:32.668Z,0
2018-01-18T01:38:13.223Z,0
2018-01-18T01:38:53.810Z,0
2018-01-18T01:39:34.375Z,0
2018-01-18T01:40:14.945Z,0
2018-01-18T01:40:55.513Z,0
2018-01-18T01:41:36.092Z,0
2018-01-18T01:42:16.723Z,0
2018-01-18T01:42:57.317Z,0
2018-01-18T01:43:37.930Z,0
2018-01-18T01:44:18.532Z,0
2018-01-18T01:44:59.100Z,0
2018-01-18T01:45:39.671Z,0
2018-01-18T01:46:20.278Z,0
2018-01-18T01:47:00.855Z,0
2018-01-18T01:47:41.429Z,0
2018-01-18T01:48:21.982Z,0
2018-01-18T01:49:02.548Z,0
2018-01-18T01:49:43.129Z,0
2018-01-18T01:50:23.726Z,0
2018-01-18T01:51:04.295Z,0
2018-01-18T01:51:44.863Z,0
2018-01-18T01:52:25.419Z,0
2018-01-18T01:53:05.980Z,0
2018-01-18T01:53:46.585Z,0
2018-01-18T01:54:27.138Z,0
2018-01-18T01:55:07.730Z,0
2018-01-18T01:55:48.276Z,0
2018-01-18T01:56:28.842Z,0
2018-01-18T01:57:09.419Z,0
2018-01-18T01:57:49.997Z,0
2018-01-18T01:58:30.598Z,0
2018-01-18T01:59:11.178Z,0
2018-01-18T01:59:51.801Z,0
2018-01-18T02:00:32.369Z,0
2018-01-18T02:01:12.921Z,0
2018-01-18T02:01:53.474Z,0
2018-01-18T02:02:34.040Z,0
2018-01-18T02:03:14.590Z,0
2018-01-18T02:03:55.167Z,0
2018-01-18T02:04:35.756Z,0
2018-01-18T02:05:16.370Z,0
2018-01-18T02:05:56.922Z,0
2018-01-18T02:06:37.492Z,0
2018-01-18T02:07:18.126Z,0
2018-01-18T02:07:58.712Z,0
2018-01-18T02:08:39.272Z,0
2018-01-18T02:09:19.847Z,0
2018-01-18T02:10:00.396Z,0
2018-01-18T02:10:40.974Z,0
2018-01-18T02:11:21.560Z,0
2018-01-18T02:12:02.125Z,0
2018-01-18T02:12:42.719Z,0
2018-01-18T02:13:23.299Z,0
2018-01-18T02:14:03.880Z,0
2018-01-18T02:14:44.429Z,0
2018-01-18T02:15:25.289Z,0
2018-01-18T02:16:05.804Z,0
2018-01-18T02:16:46.362Z,0
2018-01-18T02:17:26.934Z,0
2018-01-18T02:18:07.486Z,0
2018-01-18T02:18:48.066Z,0
2018-01-18T02:19:28.633Z,0
2018-01-18T02:20:09.183Z,0
2018-01-18T02:20:49.738Z,0
2018-01-18T02:21:30.354Z,0
2018-01-18T02:22:10.925Z,0
2018-01-18T02:22:51.493Z,0
2018-01-18T02:23:32.057Z,0
2018-01-18T02:24:12.629Z,0
2018-01-18T02:24:53.198Z,0
2018-01-18T02:25:33.772Z,0
2018-01-18T02:26:14.332Z,0
2018-01-18T02:26:54.894Z,0
2018-01-18T02:27:35.474Z,0
2018-01-18T02:28:16.042Z,0
2018-01-18T02:28:56.681Z,0
2018-01-18T02:29:37.262Z,0
2018-01-18T02:30:17.861Z,0
2018-01-18T02:30:58.411Z,0
2018-01-18T02:31:38.994Z,0
2018-01-18T02:32:19.543Z,0
2018-01-18T02:33:00.094Z,0
2018-01-18T02:33:40.657Z,0
2018-01-18T02:34:21.258Z,0
2018-01-18T02:35:01.830Z,0
2018-01-18T02:35:42.412Z,0
2018-01-18T02:36:22.965Z,0
2018-01-18T02:37:03.551Z,0
2018-01-18T02:37:44.114Z,0
2018-01-18T02:38:24.669Z,0
2018-01-18T02:39:05.248Z,0
2018-01-18T02:39:45.818Z,0
2018-01-18T02:40:26.373Z,0
2018-01-18T02:41:06.955Z,0
2018-01-18T02:41:47.520Z,0
2018-01-18T02:42:28.085Z,0
2018-01-18T02:43:08.668Z,0
2018-01-18T02:43:49.233Z,0
2018-01-18T02:44:29.793Z,0
2018-01-18T02:45:10.373Z,0
2018-01-18T02:45:50.945Z,0
2018-01-18T02:46:31.528Z,0
2018-01-18T02:47:12.106Z,0
2018-01-18T02:47:52.714Z,0
2018-01-18T02:48:33.283Z,0
2018-01-18T02:49:13.846Z,0
2018-01-18T02:49:54.425Z,0
2018-01-18T02:50:35.078Z,0
2018-01-18T02:51:15.611Z,0
2018-01-18T02:51:56.212Z,0
2018-01-18T02:52:36.818Z,0
2018-01-18T02:53:17.380Z,0
2018-01-18T02:53:57.980Z,0
2018-01-18T02:54:38.540Z,0
2018-01-18T02:55:19.120Z,0
2018-01-18T02:55:59.717Z,0
2018-01-18T02:56:40.304Z,0
2018-01-18T02:57:20.852Z,0
2018-01-18T02:58:01.422Z,0
2018-01-18T02:58:41.971Z,0
2018-01-18T02:59:22.538Z,0
2018-01-18T03:00:03.122Z,0
2018-01-18T03:00:43.701Z,0
2018-01-18T03:01:24.261Z,0
2018-01-18T03:02:04.826Z,0
2018-01-18T03:02:45.398Z,0
2018-01-18T03:03:25.977Z,0
2018-01-18T03:04:06.558Z,0
2018-01-18T03:04:47.132Z,0
2018-01-18T03:05:27.700Z,0
2018-01-18T03:06:08.260Z,0
2018-01-18T03:06:48.826Z,0
2018-01-18T03:07:29.413Z,0
2018-01-18T03:08:09.982Z,0
2018-01-18T03:08:50.582Z,0
2018-01-18T03:09:31.151Z,0
2018-01-18T03:10:11.717Z,0
2018-01-18T03:10:52.273Z,0
2018-01-18T03:11:32.833Z,0
2018-01-18T03:12:13.386Z,0
2018-01-18T03:12:53.966Z,0
2018-01-18T03:13:34.541Z,0
2018-01-18T03:14:15.104Z,0
2018-01-18T03:14:55.678Z,0
2018-01-18T03:15:36.244Z,0
2018-01-18T03:16:16.798Z,0
2018-01-18T03:16:57.388Z,0
2018-01-18T03:17:37.961Z,0
2018-01-18T03:18:18.534Z,0
2018-01-18T03:18:59.084Z,0
2018-01-18T03:19:39.633Z,0
2018-01-18T03:20:20.191Z,0
2018-01-18T03:21:00.762Z,0
2018-01-18T03:21:41.328Z,0
2018-01-18T03:22:21.887Z,0
2018-01-18T03:23:02.450Z,0
2018-01-18T03:23:43.015Z,0
2018-01-18T03:24:23.581Z,0
2018-01-18T03:25:04.133Z,0
2018-01-18T03:25:44.701Z,0
2018-01-18T03:26:25.262Z,0
2018-01-18T03:27:05.845Z,0
2018-01-18T03:27:46.393Z,0
2018-01-18T03:28:26.961Z,0
2018-01-18T03:29:07.526Z,0
2018-01-18T03:29:48.124Z,0
2018-01-18T03:30:28.674Z,0
2018-01-18T03:31:09.248Z,0
2018-01-18T03:31:49.819Z,0
2018-01-18T03:32:30.409Z,0
2018-01-18T03:33:10.974Z,0
2018-01-18T03:33:51.528Z,0
2018-01-18T03:34:32.127Z,0
2018-01-18T03:35:12.684Z,0
2018-01-18T03:35:53.228Z,0
2018-01-18T03:36:33.822Z,0
2018-01-18T03:37:14.426Z,0
2018-01-18T03:37:55.010Z,0
2018-01-18T03:38:36.418Z,0
2018-01-18T03:39:16.976Z,0
2018-01-18T03:39:57.537Z,0
2018-01-18T03:40:38.094Z,0
2018-01-18T03:41:18.653Z,0
2018-01-18T03:41:59.218Z,0
2018-01-18T03:42:39.784Z,0
2018-01-18T03:43:20.337Z,0
2018-01-18T03:44:00.903Z,0
2018-01-18T03:44:41.459Z,0
2018-01-18T03:45:22.023Z,0
2018-01-18T03:46:02.664Z,0
2018-01-18T03:46:43.260Z,0
2018-01-18T03:47:23.831Z,0
2018-01-18T03:48:04.390Z,0
2018-01-18T03:48:48.745Z,0
2018-01-18T03:49:29.321Z,0
2018-01-18T03:50:09.855Z,0
2018-01-18T03:50:50.434Z,0
2018-01-18T03:51:31.004Z,0
2018-01-18T03:52:11.593Z,0
2018-01-18T03:52:52.148Z,0
2018-01-18T03:53:32.714Z,0
2018-01-18T03:54:13.275Z,0
2018-01-18T03:54:53.862Z,0
2018-01-18T03:55:34.409Z,0
2018-01-18T03:56:14.986Z,0
2018-01-18T03:56:55.554Z,0
2018-01-18T03:57:36.124Z,0
2018-01-18T03:58:16.675Z,0
2018-01-18T03:58:57.230Z,0
2018-01-18T03:59:37.791Z,0
2018-01-18T04:00:18.371Z,0
2018-01-18T04:00:58.953Z,0
2018-01-18T04:01:39.523Z,0
2018-01-18T04:02:20.079Z,0
2018-01-18T04:03:00.635Z,0
2018-01-18T04:03:41.193Z,0
2018-01-18T04:04:21.762Z,0
2018-01-18T04:05:02.318Z,0
2018-01-18T04:05:42.877Z,0
2018-01-18T04:06:23.448Z,0
2018-01-18T04:07:04.010Z,0
2018-01-18T04:07:44.582Z,0
2018-01-18T04:08:25.153Z,0
2018-01-18T04:09:05.729Z,0
2018-01-18T04:09:46.292Z,0
2018-01-18T04:10:26.870Z,0
2018-01-18T04:11:07.472Z,0
2018-01-18T04:11:48.050Z,0
2018-01-18T04:12:28.616Z,0
2018-01-18T04:13:09.169Z,0
2018-01-18T04:13:49.743Z,0
2018-01-18T04:14:30.317Z,0
2018-01-18T04:15:10.884Z,0
2018-01-18T04:15:51.457Z,0
2018-01-18T04:16:32.027Z,0
2018-01-18T04:17:12.590Z,0
2018-01-18T04:17:53.153Z,0
2018-01-18T04:18:33.720Z,0
2018-01-18T04:19:14.287Z,0
2018-01-18T04:19:54.904Z,0
2018-01-18T04:20:35.469Z,0
2018-01-18T04:21:16.019Z,0
2018-01-18T04:21:56.576Z,0
2018-01-18T04:22:37.151Z,0
2018-01-18T04:23:17.711Z,0
2018-01-18T04:23:58.251Z,0
2018-01-18T04:24:38.816Z,0
2018-01-18T04:25:19.379Z,0
2018-01-18T04:25:59.940Z,0
2018-01-18T04:26:40.498Z,0
2018-01-18T04:27:21.060Z,0
2018-01-18T04:28:01.611Z,0
2018-01-18T04:28:42.169Z,0
2018-01-18T04:29:22.729Z,0
2018-01-18T04:30:03.296Z,0
2018-01-18T04:30:43.857Z,0
2018-01-18T04:31:24.420Z,0
2018-01-18T04:32:04.973Z,0
2018-01-18T04:32:45.539Z,0
2018-01-18T04:33:26.109Z,0
2018-01-18T04:34:06.671Z,0
2018-01-18T04:34:47.224Z,0
2018-01-18T04:35:27.785Z,0
2018-01-18T04:36:08.342Z,0
2018-01-18T04:36:48.944Z,0
2018-01-18T04:37:29.506Z,0
2018-01-18T04:38:10.078Z,0
2018-01-18T04:38:50.650Z,0
2018-01-18T04:39:31.198Z,0
2018-01-18T04:40:11.749Z,0
2018-01-18T04:40:52.314Z,0
2018-01-18T04:41:32.875Z,0
2018-01-18T04:42:13.452Z,0
2018-01-18T04:42:54.008Z,0
2018-01-18T04:43:34.572Z,0
2018-01-18T04:44:15.142Z,0
2018-01-18T04:44:55.714Z,0
2018-01-18T04:45:36.299Z,0
2018-01-18T04:46:16.870Z,0
2018-01-18T04:46:57.475Z,0
2018-01-18T04:47:38.006Z,0
2018-01-18T04:48:18.559Z,0
2018-01-18T04:48:59.118Z,0
2018-01-18T04:49:39.715Z,0
2018-01-18T04:50:20.283Z,0
2018-01-18T04:51:00.872Z,0
2018-01-18T04:51:41.459Z,0
2018-01-18T04:52:22.026Z,0
2018-01-18T04:53:02.603Z,0
2018-01-18T04:53:43.185Z,0
2018-01-18T04:54:23.757Z,0
2018-01-18T04:55:04.314Z,0
2018-01-18T04:55:44.888Z,0
2018-01-18T04:56:25.482Z,0
2018-01-18T04:57:06.046Z,0
2018-01-18T04:57:46.617Z,0
2018-01-18T04:58:27.179Z,0
2018-01-18T04:59:07.767Z,0
2018-01-18T04:59:48.339Z,0
2018-01-18T05:00:28.911Z,0
2018-01-18T05:01:09.480Z,0
2018-01-18T05:01:50.031Z,0
2018-01-18T05:02:30.588Z,0
2018-01-18T05:03:11.155Z,0
2018-01-18T05:03:51.747Z,0
2018-01-18T05:04:33.445Z,0
2018-01-18T05:05:13.572Z,0
2018-01-18T05:05:54.154Z,0
2018-01-18T05:06:34.726Z,0
2018-01-18T05:07:15.297Z,0
2018-01-18T05:07:55.861Z,0
2018-01-18T05:08:36.443Z,0
2018-01-18T05:09:17.002Z,0
2018-01-18T05:09:57.576Z,0
2018-01-18T05:10:38.132Z,0
2018-01-18T05:11:18.706Z,0
2018-01-18T05:11:59.260Z,0
2018-01-18T05:12:39.847Z,0
2018-01-18T05:13:20.425Z,0
2018-01-18T05:14:01.016Z,0
2018-01-18T05:14:41.583Z,0
2018-01-18T05:15:22.151Z,0
2018-01-18T05:16:02.703Z,0
2018-01-18T05:16:43.279Z,0
2018-01-18T05:17:23.852Z,0
2018-01-18T05:18:04.460Z,0
2018-01-18T05:18:45.059Z,0
2018-01-18T05:19:25.622Z,0
2018-01-18T05:20:06.196Z,0
2018-01-18T05:20:46.750Z,0
2018-01-18T05:21:27.509Z,0
2018-01-18T05:22:08.096Z,0
2018-01-18T05:22:48.660Z,0
2018-01-18T05:23:29.274Z,0
2018-01-18T05:24:09.861Z,0
2018-01-18T05:24:50.433Z,0
2018-01-18T05:25:31.034Z,0
2018-01-18T05:26:11.595Z,0
2018-01-18T05:26:52.178Z,0
2018-01-18T05:27:32.759Z,0
2018-01-18T05:28:13.340Z,0
2018-01-18T05:28:53.893Z,0
2018-01-18T05:29:34.450Z,0
2018-01-18T05:30:15.076Z,0
2018-01-18T05:30:55.650Z,0
2018-01-18T05:31:36.227Z,0
2018-01-18T05:32:16.797Z,0
2018-01-18T05:32:57.363Z,0
2018-01-18T05:33:37.911Z,0
2018-01-18T05:34:18.475Z,0
2018-01-18T05:34:59.066Z,0
2018-01-18T05:35:39.630Z,0
2018-01-18T05:36:20.193Z,0
2018-01-18T05:37:00.779Z,0
2018-01-18T05:37:41.354Z,0
2018-01-18T05:38:21.933Z,0
2018-01-18T05:39:02.484Z,0
2018-01-18T05:39:43.048Z,0
2018-01-18T05:40:23.610Z,0
2018-01-18T05:41:04.199Z,0
2018-01-18T05:41:44.727Z,0
2018-01-18T05:42:25.302Z,0
2018-01-18T05:43:05.887Z,0
2018-01-18T05:43:46.440Z,0
2018-01-18T05:44:27.002Z,0
2018-01-18T05:45:07.575Z,0
2018-01-18T05:45:48.144Z,0
2018-01-18T05:46:28.709Z,0
2018-01-18T05:47:09.324Z,0
2018-01-18T05:47:49.911Z,0
2018-01-18T05:48:30.500Z,0
2018-01-18T05:51:03.618Z,0
2018-01-18T05:51:44.171Z,0
2018-01-18T05:52:24.726Z,0
2018-01-18T05:53:05.299Z,0
2018-01-18T05:53:45.880Z,0
2018-01-18T05:54:26.442Z,0
2018-01-18T05:55:06.992Z,0
2018-01-18T05:55:47.549Z,0
2018-01-18T05:56:28.114Z,0
2018-01-18T05:57:08.666Z,0
2018-01-18T05:57:49.224Z,0
2018-01-18T05:58:29.811Z,0
2018-01-18T05:59:10.423Z,0
2018-01-18T05:59:50.983Z,0
2018-01-18T06:00:31.564Z,0
2018-01-18T06:01:12.156Z,0
2018-01-18T06:01:52.747Z,0
2018-01-18T06:02:33.317Z,0
2018-01-18T06:03:13.896Z,0
2018-01-18T06:03:54.458Z,0
2018-01-18T06:04:35.024Z,0
2018-01-18T06:05:15.574Z,0
2018-01-18T06:05:56.144Z,0
2018-01-18T06:06:36.699Z,0
2018-01-18T06:07:17.256Z,0
2018-01-18T06:07:57.829Z,0
2018-01-18T06:08:38.410Z,0
2018-01-18T06:09:18.978Z,0
2018-01-18T06:09:59.543Z,0
2018-01-18T06:10:40.135Z,0
2018-01-18T06:11:20.696Z,0
2018-01-18T06:12:01.260Z,0
2018-01-18T06:12:41.825Z,0
2018-01-18T06:13:22.377Z,0
2018-01-18T06:14:02.953Z,0
2018-01-18T06:14:43.891Z,0
2018-01-18T06:15:24.454Z,0
2018-01-18T06:16:05.011Z,0
2018-01-18T06:16:45.617Z,0
2018-01-18T06:17:26.910Z,0
2018-01-18T06:18:07.485Z,0
2018-01-18T06:18:48.065Z,0
2018-01-18T06:19:28.649Z,0
2018-01-18T06:20:09.216Z,0
2018-01-18T06:20:49.784Z,0
2018-01-18T06:21:30.354Z,0
2018-01-18T06:22:10.929Z,0
2018-01-18T06:22:51.513Z,0
2018-01-18T06:23:32.057Z,0
2018-01-18T06:24:12.604Z,0
2018-01-18T06:24:53.161Z,0
2018-01-18T06:25:33.741Z,0
2018-01-18T06:26:14.355Z,0
2018-01-18T06:26:54.992Z,0
2018-01-18T06:27:35.516Z,0
2018-01-18T06:28:16.070Z,0
2018-01-18T06:28:56.617Z,0
2018-01-18T06:29:37.187Z,0
2018-01-18T06:30:17.789Z,0
2018-01-18T06:30:58.354Z,0
2018-01-18T06:31:38.913Z,0
2018-01-18T06:32:19.489Z,0
2018-01-18T06:33:00.047Z,0
2018-01-18T06:33:40.652Z,0
2018-01-18T06:34:21.205Z,0
2018-01-18T06:35:01.758Z,0
2018-01-18T06:35:42.373Z,0
2018-01-18T06:36:22.928Z,0
2018-01-18T06:37:03.491Z,0
2018-01-18T06:37:44.052Z,0
2018-01-18T06:38:24.667Z,0
2018-01-18T06:39:05.185Z,0
2018-01-18T06:39:45.796Z,0
2018-01-18T06:40:26.351Z,0
2018-01-18T06:41:06.924Z,0
2018-01-18T06:41:47.491Z,0
2018-01-18T06:42:28.055Z,0
2018-01-18T06:43:08.646Z,0
2018-01-18T06:43:49.204Z,0
2018-01-18T06:44:29.773Z,0
2018-01-18T06:45:10.334Z,0
2018-01-18T06:45:50.901Z,0
2018-01-18T06:46:31.507Z,0
2018-01-18T06:47:12.062Z,0
2018-01-18T06:47:52.625Z,0
2018-01-18T06:48:33.181Z,0
2018-01-18T06:49:13.749Z,0
2018-01-18T06:49:54.299Z,0
2018-01-18T06:50:34.881Z,0
2018-01-18T06:51:15.473Z,0
2018-01-18T06:51:56.095Z,0
2018-01-18T06:52:36.702Z,0
2018-01-18T06:53:17.263Z,0
2018-01-18T06:53:57.834Z,0
2018-01-18T06:54:38.430Z,0
2018-01-18T06:55:18.998Z,0
2018-01-18T06:55:59.558Z,0
2018-01-18T06:56:40.127Z,0
2018-01-18T06:57:20.698Z,0
2018-01-18T06:58:01.277Z,0
2018-01-18T06:58:41.835Z,0
2018-01-18T06:59:22.405Z,0
2018-01-18T07:00:02.962Z,0
2018-01-18T07:00:43.531Z,0
2018-01-18T07:01:24.085Z,0
2018-01-18T07:02:04.640Z,0
2018-01-18T07:02:45.209Z,0
2018-01-18T07:03:25.769Z,0
2018-01-18T07:04:06.339Z,0
2018-01-18T07:04:46.908Z,0
2018-01-18T07:05:27.454Z,0
2018-01-18T07:06:08.769Z,0
2018-01-18T07:06:49.186Z,0
2018-01-18T07:07:29.733Z,0
2018-01-18T07:08:10.333Z,0
2018-01-18T07:08:50.926Z,0
2018-01-18T07:09:31.523Z,0
2018-01-18T07:10:12.082Z,0
2018-01-18T07:10:52.639Z,0
2018-01-18T07:11:33.222Z,0
2018-01-18T07:12:13.832Z,0
2018-01-18T07:12:54.526Z,0
2018-01-18T07:13:35.109Z,0
2018-01-18T07:14:16.576Z,0
2018-01-18T07:14:57.171Z,0
2018-01-18T07:15:38.436Z,0
2018-01-18T07:16:20.422Z,0
2018-01-18T07:17:00.458Z,0
2018-01-18T07:17:41.398Z,0
2018-01-18T07:18:22.050Z,0
2018-01-18T07:19:02.610Z,0
2018-01-18T07:19:43.275Z,0
2018-01-18T07:20:23.827Z,0
2018-01-18T07:21:04.480Z,0
2018-01-18T07:21:45.173Z,0
2018-01-18T07:22:25.692Z,0
2018-01-18T07:23:06.248Z,0
2018-01-18T07:23:46.885Z,0
2018-01-18T07:24:27.456Z,0
2018-01-18T07:25:08.229Z,0
2018-01-18T07:25:48.881Z,0
2018-01-18T07:26:29.512Z,5
2018-01-18T07:27:10.086Z,5
2018-01-18T07:27:50.755Z,5
2018-01-18T07:28:31.390Z,5
2018-01-18T07:29:11.948Z,5
2018-01-18T07:29:54.373Z,5
2018-01-18T07:30:34.969Z,5
2018-01-18T07:31:15.541Z,5
2018-01-18T07:31:56.794Z,5
2018-01-18T07:32:37.459Z,10
2018-01-18T07:33:18.057Z,10
2018-01-18T07:33:58.700Z,10
2018-01-18T07:34:39.555Z,10
2018-01-18T07:35:20.035Z,10
2018-01-18T07:36:00.857Z,15
2018-01-18T07:36:41.421Z,15
2018-01-18T07:37:21.978Z,15
2018-01-18T07:38:02.682Z,15
2018-01-18T07:38:43.249Z,10
2018-01-18T07:39:23.846Z,10
2018-01-18T07:40:04.450Z,10
2018-01-18T07:40:45.008Z,10
2018-01-18T07:41:27.320Z,10
2018-01-18T07:42:07.973Z,10
2018-01-18T07:42:48.542Z,10
2018-01-18T07:43:29.108Z,10
2018-01-18T07:44:09.669Z,10
2018-01-18T07:44:50.360Z,10
2018-01-18T07:45:30.940Z,10
2018-01-18T07:46:11.488Z,10
2018-01-18T07:46:52.056Z,10
2018-01-18T07:47:32.620Z,10
2018-01-18T07:48:14.415Z,5
2018-01-18T07:48:54.975Z,5
2018-01-18T07:49:35.552Z,5
2018-01-18T07:50:16.125Z,10
2018-01-18T07:50:56.686Z,10
2018-01-18T07:51:37.256Z,10
2018-01-18T07:52:17.821Z,10
2018-01-18T07:52:58.416Z,10
2018-01-18T07:53:39.012Z,10
2018-01-18T07:54:19.591Z,10
2018-01-18T07:55:00.161Z,10
2018-01-18T07:55:40.787Z,10
2018-01-18T07:56:21.399Z,10
2018-01-18T07:57:01.978Z,10
2018-01-18T07:57:42.551Z,10
2018-01-18T07:58:23.145Z,10
2018-01-18T07:59:03.745Z,10
2018-01-18T07:59:44.303Z,10
2018-01-18T08:00:24.868Z,10
2018-01-18T08:01:05.636Z,10
2018-01-18T08:01:46.194Z,10
2018-01-18T08:02:26.750Z,10
2018-01-18T08:03:07.298Z,10
2018-01-18T08:03:47.870Z,10
2018-01-18T08:04:28.419Z,10
2018-01-18T08:05:08.981Z,10
2018-01-18T08:05:49.547Z,10
2018-01-18T08:06:30.160Z,10
2018-01-18T08:07:10.726Z,10
2018-01-18T08:07:51.310Z,10
2018-01-18T08:08:31.868Z,10
2018-01-18T08:09:12.418Z,10
2018-01-18T08:09:53.001Z,10
2018-01-18T08:10:33.581Z,10
2018-01-18T08:11:14.140Z,10
2018-01-18T08:11:54.707Z,5
2018-01-18T08:12:35.263Z,5
2018-01-18T08:13:15.837Z,5
2018-01-18T08:13:56.400Z,5
2018-01-18T08:14:36.982Z,5
2018-01-18T08:15:17.536Z,5
2018-01-18T08:15:58.428Z,5
2018-01-18T08:16:39.009Z,5
2018-01-18T08:17:19.559Z,5
2018-01-18T08:18:00.131Z,5
2018-01-18T08:18:40.689Z,5
2018-01-18T08:19:21.287Z,5
2018-01-18T08:20:01.849Z,5
2018-01-18T08:20:42.400Z,5
2018-01-18T08:21:22.967Z,5
2018-01-18T08:22:03.544Z,5
2018-01-18T08:22:44.106Z,5
2018-01-18T08:23:24.699Z,5
2018-01-18T08:24:06.205Z,5
2018-01-18T08:24:46.766Z,5
2018-01-18T08:25:27.537Z,5
2018-01-18T08:26:08.101Z,5
2018-01-18T08:26:48.666Z,10
2018-01-18T08:27:29.248Z,10
2018-01-18T08:28:09.881Z,10
2018-01-18T08:28:50.448Z,10
2018-01-18T08:29:31.128Z,10
2018-01-18T08:30:11.698Z,10
2018-01-18T08:30:52.267Z,10
2018-01-18T08:31:32.825Z,10
2018-01-18T08:32:13.387Z,10
2018-01-18T08:32:53.942Z,15
2018-01-18T08:33:34.515Z,15
2018-01-18T08:34:15.087Z,15
2018-01-18T08:34:55.676Z,15
2018-01-18T08:35:36.327Z,15
2018-01-18T08:36:16.901Z,15
2018-01-18T08:36:57.453Z,15
2018-01-18T08:37:38.030Z,15
2018-01-18T08:38:18.633Z,15
2018-01-18T08:38:59.206Z,15
2018-01-18T08:39:39.806Z,15
2018-01-18T08:40:20.413Z,15
2018-01-18T08:41:00.973Z,15
2018-01-18T08:41:41.547Z,20
2018-01-18T08:42:22.226Z,20
2018-01-18T08:43:02.807Z,20
2018-01-18T08:43:43.366Z,25
2018-01-18T08:44:23.950Z,30
2018-01-18T08:45:04.552Z,30
2018-01-18T08:45:45.170Z,35
2018-01-18T08:46:25.753Z,40
2018-01-18T08:47:06.326Z,40
2018-01-18T08:47:46.888Z,45
2018-01-18T08:48:27.459Z,45
2018-01-18T08:49:08.032Z,45
2018-01-18T08:49:48.601Z,45
2018-01-18T08:50:29.161Z,40
2018-01-18T08:51:09.760Z,40
2018-01-18T08:51:50.354Z,35
2018-01-18T08:52:30.952Z,35
2018-01-18T08:53:11.514Z,30
2018-01-18T08:53:52.100Z,30
2018-01-18T08:54:32.717Z,25
2018-01-18T08:55:13.331Z,25
2018-01-18T08:55:53.897Z,20
2018-01-18T08:56:34.454Z,20
2018-01-18T08:57:15.027Z,20
2018-01-18T08:57:55.604Z,15
2018-01-18T08:58:36.206Z,15
2018-01-18T08:59:16.752Z,15
2018-01-18T08:59:57.330Z,15
2018-01-18T09:00:37.951Z,15
2018-01-18T09:01:18.545Z,15
2018-01-18T09:01:59.111Z,10
2018-01-18T09:02:39.691Z,10
2018-01-18T09:03:20.254Z,10
2018-01-18T09:04:00.817Z,10
2018-01-18T09:04:41.392Z,10
2018-01-18T09:05:22.030Z,10
2018-01-18T09:06:02.622Z,10
2018-01-18T09:06:43.191Z,10
2018-01-18T09:07:23.793Z,10
2018-01-18T09:08:04.361Z,5
2018-01-18T09:08:44.930Z,5
2018-01-18T09:09:25.514Z,5
2018-01-18T09:10:06.099Z,5
2018-01-18T09:10:46.678Z,5
2018-01-18T09:11:27.284Z,5
2018-01-18T09:12:07.893Z,5
2018-01-18T09:12:48.441Z,5
2018-01-18T09:13:29.002Z,5
2018-01-18T09:14:09.581Z,5
2018-01-18T09:14:50.197Z,5
2018-01-18T09:15:30.790Z,5
2018-01-18T09:16:11.364Z,5
2018-01-18T09:16:51.916Z,5
2018-01-18T09:17:32.495Z,10
2018-01-18T09:18:13.068Z,10
2018-01-18T09:18:53.639Z,10
2018-01-18T09:19:34.204Z,10
2018-01-18T09:20:14.772Z,10
2018-01-18T09:20:55.347Z,15
2018-01-18T09:21:35.914Z,15
2018-01-18T09:22:16.473Z,15
2018-01-18T09:22:57.041Z,15
2018-01-18T09:23:37.621Z,15
2018-01-18T09:24:18.218Z,15
2018-01-18T09:24:58.798Z,15
2018-01-18T09:25:39.405Z,15
2018-01-18T09:26:19.962Z,15
2018-01-18T09:27:00.538Z,15
2018-01-18T09:27:41.169Z,15
2018-01-18T09:28:21.772Z,15
2018-01-18T09:29:02.327Z,15
2018-01-18T09:29:42.902Z,15
2018-01-18T09:30:23.458Z,15
2018-01-18T09:31:04.073Z,15
2018-01-18T09:31:44.669Z,10
2018-01-18T09:32:25.231Z,10
2018-01-18T09:33:05.831Z,10
2018-01-18T09:33:46.443Z,10
2018-01-18T09:34:27.034Z,10
2018-01-18T09:35:07.596Z,10
2018-01-18T09:35:48.169Z,10
2018-01-18T09:36:28.726Z,10
2018-01-18T09:37:09.300Z,10
2018-01-18T09:37:49.871Z,10
2018-01-18T09:38:30.459Z,10
2018-01-18T09:39:11.032Z,15
2018-01-18T09:39:51.684Z,15
2018-01-18T09:40:32.403Z,15
2018-01-18T09:41:13.015Z,20
2018-01-18T09:41:53.586Z,15
2018-01-18T09:42:34.194Z,15
2018-01-18T09:43:14.762Z,20
2018-01-18T09:43:55.338Z,20
2018-01-18T09:44:35.908Z,20
2018-01-18T09:45:16.471Z,25
2018-01-18T09:45:57.280Z,25
2018-01-18T09:46:37.843Z,25
2018-01-18T09:47:18.409Z,25
2018-01-18T09:47:58.971Z,20
2018-01-18T09:48:39.552Z,20
2018-01-18T09:49:20.153Z,15
2018-01-18T09:50:00.718Z,15
2018-01-18T09:50:41.311Z,10
2018-01-18T09:51:21.865Z,10
2018-01-18T09:52:02.424Z,10
2018-01-18T09:52:43.017Z,10
2018-01-18T09:53:23.605Z,10
2018-01-18T09:54:04.174Z,5
2018-01-18T09:54:44.743Z,5
2018-01-18T09:55:25.329Z,5
2018-01-18T09:56:05.902Z,5
2018-01-18T09:56:46.456Z,5
2018-01-18T09:57:27.015Z,5
2018-01-18T09:58:07.602Z,5